sensor_id;sensor_type;location;lat;lon;timestamp;P1;durP1;ratioP1;P2;durP2;ratioP2
15295;SDS011;7749;49.964;7.890;2023-10-09T00:02:11;9.20;;;5.70;;
15295;SDS011;7749;49.964;7.890;2023-10-09T00:04:41;10.93;;;6.70;;
15295;SDS011;7749;49.964;7.890;2023-10-09T00:07:12;10.63;;;6.30;;
15295;SDS011;7749;49.964;7.890;2023-10-09T00:09:44;11.17;;;6.40;;
15295;SDS011;7749;49.964;7.890;2023-10-09T00:12:16;11.00;;;6.47;;
15295;SDS011;7749;49.964;7.890;2023-10-09T00:14:50;10.30;;;6.03;;
15295;SDS011;7749;49.964;7.890;2023-10-09T00:17:23;11.10;;;6.77;;
15295;SDS011;7749;49.964;7.890;2023-10-09T00:19:51;7.83;;;5.97;;
15295;SDS011;7749;49.964;7.890;2023-10-09T00:22:19;11.97;;;6.57;;
15295;SDS011;7749;49.964;7.890;2023-10-09T00:24:54;11.17;;;6.43;;
15295;SDS011;7749;49.964;7.890;2023-10-09T00:27:41;7.77;;;5.57;;
15295;SDS011;7749;49.964;7.890;2023-10-09T00:30:14;11.00;;;7.07;;
15295;SDS011;7749;49.964;7.890;2023-10-09T00:32:45;9.50;;;6.60;;
15295;SDS011;7749;49.964;7.890;2023-10-09T00:35:22;10.67;;;7.07;;
15295;SDS011;7749;49.964;7.890;2023-10-09T00:38:08;13.37;;;6.43;;
15295;SDS011;7749;49.964;7.890;2023-10-09T00:40:51;9.70;;;6.20;;
15295;SDS011;7749;49.964;7.890;2023-10-09T00:43:39;10.33;;;7.07;;
15295;SDS011;7749;49.964;7.890;2023-10-09T00:46:10;13.53;;;7.07;;
15295;SDS011;7749;49.964;7.890;2023-10-09T00:48:48;10.30;;;6.80;;
15295;SDS011;7749;49.964;7.890;2023-10-09T00:51:20;10.33;;;6.70;;
15295;SDS011;7749;49.964;7.890;2023-10-09T00:53:49;11.80;;;6.57;;
15295;SDS011;7749;49.964;7.890;2023-10-09T00:56:22;10.87;;;6.13;;
15295;SDS011;7749;49.964;7.890;2023-10-09T00:58:53;9.53;;;6.10;;
15295;SDS011;7749;49.964;7.890;2023-10-09T01:01:42;8.83;;;6.40;;
15295;SDS011;7749;49.964;7.890;2023-10-09T01:04:45;9.80;;;5.60;;
15295;SDS011;7749;49.964;7.890;2023-10-09T01:07:12;12.27;;;6.37;;
15295;SDS011;7749;49.964;7.890;2023-10-09T01:09:47;13.60;;;7.43;;
15295;SDS011;7749;49.964;7.890;2023-10-09T01:12:18;12.07;;;7.23;;
15295;SDS011;7749;49.964;7.890;2023-10-09T01:14:46;11.60;;;6.17;;
15295;SDS011;7749;49.964;7.890;2023-10-09T01:17:23;9.13;;;6.30;;
15295;SDS011;7749;49.964;7.890;2023-10-09T01:20:03;10.27;;;6.17;;
15295;SDS011;7749;49.964;7.890;2023-10-09T01:22:32;11.40;;;6.37;;
15295;SDS011;7749;49.964;7.890;2023-10-09T01:24:59;8.80;;;6.00;;
15295;SDS011;7749;49.964;7.890;2023-10-09T01:27:27;9.47;;;6.00;;
15295;SDS011;7749;49.964;7.890;2023-10-09T01:29:59;8.60;;;6.30;;
15295;SDS011;7749;49.964;7.890;2023-10-09T01:32:27;9.37;;;6.47;;
15295;SDS011;7749;49.964;7.890;2023-10-09T01:34:55;10.87;;;7.57;;
15295;SDS011;7749;49.964;7.890;2023-10-09T01:37:25;9.70;;;6.43;;
15295;SDS011;7749;49.964;7.890;2023-10-09T01:39:56;11.23;;;7.23;;
15295;SDS011;7749;49.964;7.890;2023-10-09T01:42:26;8.33;;;6.40;;
15295;SDS011;7749;49.964;7.890;2023-10-09T01:44:57;11.33;;;7.10;;
15295;SDS011;7749;49.964;7.890;2023-10-09T01:47:26;8.47;;;5.87;;
15295;SDS011;7749;49.964;7.890;2023-10-09T01:49:59;11.20;;;6.10;;
15295;SDS011;7749;49.964;7.890;2023-10-09T01:52:32;8.97;;;5.77;;
15295;SDS011;7749;49.964;7.890;2023-10-09T01:55:03;9.13;;;5.57;;
15295;SDS011;7749;49.964;7.890;2023-10-09T01:57:36;10.10;;;7.27;;
15295;SDS011;7749;49.964;7.890;2023-10-09T02:00:06;8.90;;;6.70;;
15295;SDS011;7749;49.964;7.890;2023-10-09T02:02:34;9.60;;;6.40;;
15295;SDS011;7749;49.964;7.890;2023-10-09T02:05:03;9.30;;;6.40;;
15295;SDS011;7749;49.964;7.890;2023-10-09T02:07:37;9.70;;;6.50;;
15295;SDS011;7749;49.964;7.890;2023-10-09T02:10:08;9.73;;;6.47;;
15295;SDS011;7749;49.964;7.890;2023-10-09T02:12:48;11.70;;;6.27;;
15295;SDS011;7749;49.964;7.890;2023-10-09T02:15:37;9.90;;;5.93;;
15295;SDS011;7749;49.964;7.890;2023-10-09T02:18:13;12.73;;;7.30;;
15295;SDS011;7749;49.964;7.890;2023-10-09T02:20:51;11.50;;;6.53;;
15295;SDS011;7749;49.964;7.890;2023-10-09T02:23:30;10.00;;;6.23;;
15295;SDS011;7749;49.964;7.890;2023-10-09T02:26:13;8.13;;;6.00;;
15295;SDS011;7749;49.964;7.890;2023-10-09T02:28:59;8.97;;;5.80;;
15295;SDS011;7749;49.964;7.890;2023-10-09T02:31:31;8.03;;;6.13;;
15295;SDS011;7749;49.964;7.890;2023-10-09T02:34:08;10.60;;;5.80;;
15295;SDS011;7749;49.964;7.890;2023-10-09T02:36:38;9.60;;;6.03;;
15295;SDS011;7749;49.964;7.890;2023-10-09T02:39:28;10.80;;;5.87;;
15295;SDS011;7749;49.964;7.890;2023-10-09T02:42:03;10.43;;;6.20;;
15295;SDS011;7749;49.964;7.890;2023-10-09T02:44:47;8.53;;;5.40;;
15295;SDS011;7749;49.964;7.890;2023-10-09T02:47:17;8.90;;;6.13;;
15295;SDS011;7749;49.964;7.890;2023-10-09T02:49:57;13.93;;;7.00;;
15295;SDS011;7749;49.964;7.890;2023-10-09T02:52:36;9.93;;;5.83;;
15295;SDS011;7749;49.964;7.890;2023-10-09T02:55:09;9.73;;;6.23;;
15295;SDS011;7749;49.964;7.890;2023-10-09T02:57:55;8.10;;;5.97;;
15295;SDS011;7749;49.964;7.890;2023-10-09T03:00:33;10.03;;;5.53;;
15295;SDS011;7749;49.964;7.890;2023-10-09T03:03:03;11.07;;;5.60;;
15295;SDS011;7749;49.964;7.890;2023-10-09T03:05:35;9.23;;;4.83;;
15295;SDS011;7749;49.964;7.890;2023-10-09T03:08:09;6.97;;;5.67;;
15295;SDS011;7749;49.964;7.890;2023-10-09T03:10:40;9.20;;;6.13;;
15295;SDS011;7749;49.964;7.890;2023-10-09T03:13:07;7.40;;;5.47;;
15295;SDS011;7749;49.964;7.890;2023-10-09T03:15:35;10.10;;;6.30;;
15295;SDS011;7749;49.964;7.890;2023-10-09T03:18:05;8.27;;;6.03;;
15295;SDS011;7749;49.964;7.890;2023-10-09T03:20:33;10.90;;;6.10;;
15295;SDS011;7749;49.964;7.890;2023-10-09T03:23:01;9.80;;;6.70;;
15295;SDS011;7749;49.964;7.890;2023-10-09T03:25:29;10.67;;;5.87;;
15295;SDS011;7749;49.964;7.890;2023-10-09T03:27:57;9.83;;;5.20;;
15295;SDS011;7749;49.964;7.890;2023-10-09T03:30:26;7.87;;;5.80;;
15295;SDS011;7749;49.964;7.890;2023-10-09T03:32:54;10.73;;;6.17;;
15295;SDS011;7749;49.964;7.890;2023-10-09T03:35:22;12.00;;;7.20;;
15295;SDS011;7749;49.964;7.890;2023-10-09T03:37:57;11.43;;;6.27;;
15295;SDS011;7749;49.964;7.890;2023-10-09T03:40:42;10.87;;;6.07;;
15295;SDS011;7749;49.964;7.890;2023-10-09T03:43:10;7.30;;;5.40;;
15295;SDS011;7749;49.964;7.890;2023-10-09T03:45:38;10.30;;;6.43;;
15295;SDS011;7749;49.964;7.890;2023-10-09T03:48:12;7.80;;;5.43;;
15295;SDS011;7749;49.964;7.890;2023-10-09T03:50:47;9.03;;;5.77;;
15295;SDS011;7749;49.964;7.890;2023-10-09T03:53:15;8.10;;;5.97;;
15295;SDS011;7749;49.964;7.890;2023-10-09T03:55:46;9.13;;;5.50;;
15295;SDS011;7749;49.964;7.890;2023-10-09T03:58:13;8.90;;;5.93;;
15295;SDS011;7749;49.964;7.890;2023-10-09T04:00:42;8.03;;;5.67;;
15295;SDS011;7749;49.964;7.890;2023-10-09T04:03:14;7.33;;;5.33;;
15295;SDS011;7749;49.964;7.890;2023-10-09T04:05:43;8.77;;;6.03;;
15295;SDS011;7749;49.964;7.890;2023-10-09T04:08:11;10.10;;;6.60;;
15295;SDS011;7749;49.964;7.890;2023-10-09T04:10:40;8.33;;;5.70;;
15295;SDS011;7749;49.964;7.890;2023-10-09T04:13:21;9.47;;;5.73;;
15295;SDS011;7749;49.964;7.890;2023-10-09T04:16:03;8.13;;;4.90;;
15295;SDS011;7749;49.964;7.890;2023-10-09T04:18:54;7.43;;;5.53;;
15295;SDS011;7749;49.964;7.890;2023-10-09T04:21:25;8.80;;;5.73;;
15295;SDS011;7749;49.964;7.890;2023-10-09T04:26:40;10.20;;;5.53;;
15295;SDS011;7749;49.964;7.890;2023-10-09T04:29:11;8.93;;;5.20;;
15295;SDS011;7749;49.964;7.890;2023-10-09T04:31:50;8.33;;;5.40;;
15295;SDS011;7749;49.964;7.890;2023-10-09T04:34:21;7.93;;;5.50;;
15295;SDS011;7749;49.964;7.890;2023-10-09T04:36:50;6.63;;;4.60;;
15295;SDS011;7749;49.964;7.890;2023-10-09T04:39:38;7.00;;;4.80;;
15295;SDS011;7749;49.964;7.890;2023-10-09T04:42:14;12.63;;;7.87;;
15295;SDS011;7749;49.964;7.890;2023-10-09T04:45:05;12.60;;;6.73;;
15295;SDS011;7749;49.964;7.890;2023-10-09T04:47:34;24.27;;;14.27;;
15295;SDS011;7749;49.964;7.890;2023-10-09T04:50:06;10.70;;;7.97;;
15295;SDS011;7749;49.964;7.890;2023-10-09T04:52:42;10.87;;;7.00;;
15295;SDS011;7749;49.964;7.890;2023-10-09T04:55:09;7.17;;;5.13;;
15295;SDS011;7749;49.964;7.890;2023-10-09T04:57:37;13.87;;;12.17;;
15295;SDS011;7749;49.964;7.890;2023-10-09T05:00:13;8.93;;;6.73;;
15295;SDS011;7749;49.964;7.890;2023-10-09T05:02:55;9.20;;;5.30;;
15295;SDS011;7749;49.964;7.890;2023-10-09T05:05:32;7.07;;;5.20;;
15295;SDS011;7749;49.964;7.890;2023-10-09T05:08:10;8.57;;;5.33;;
15295;SDS011;7749;49.964;7.890;2023-10-09T05:10:48;11.37;;;5.53;;
15295;SDS011;7749;49.964;7.890;2023-10-09T05:13:34;8.90;;;5.60;;
15295;SDS011;7749;49.964;7.890;2023-10-09T05:16:06;8.13;;;5.20;;
15295;SDS011;7749;49.964;7.890;2023-10-09T05:18:46;8.63;;;5.47;;
15295;SDS011;7749;49.964;7.890;2023-10-09T05:21:39;7.70;;;4.77;;
15295;SDS011;7749;49.964;7.890;2023-10-09T05:24:10;8.30;;;5.07;;
15295;SDS011;7749;49.964;7.890;2023-10-09T05:26:43;11.27;;;5.97;;
15295;SDS011;7749;49.964;7.890;2023-10-09T05:29:25;12.63;;;6.23;;
15295;SDS011;7749;49.964;7.890;2023-10-09T05:32:07;10.30;;;6.40;;
15295;SDS011;7749;49.964;7.890;2023-10-09T05:34:41;9.73;;;5.97;;
15295;SDS011;7749;49.964;7.890;2023-10-09T05:37:26;8.73;;;5.20;;
15295;SDS011;7749;49.964;7.890;2023-10-09T05:40:02;11.90;;;5.70;;
15295;SDS011;7749;49.964;7.890;2023-10-09T05:42:42;9.50;;;6.43;;
15295;SDS011;7749;49.964;7.890;2023-10-09T05:45:12;11.60;;;6.60;;
15295;SDS011;7749;49.964;7.890;2023-10-09T05:47:57;12.07;;;6.33;;
15295;SDS011;7749;49.964;7.890;2023-10-09T05:50:31;9.87;;;6.53;;
15295;SDS011;7749;49.964;7.890;2023-10-09T05:53:04;8.23;;;5.63;;
15295;SDS011;7749;49.964;7.890;2023-10-09T05:55:34;9.83;;;6.07;;
15295;SDS011;7749;49.964;7.890;2023-10-09T05:58:04;9.97;;;5.83;;
15295;SDS011;7749;49.964;7.890;2023-10-09T06:00:51;11.80;;;6.17;;
15295;SDS011;7749;49.964;7.890;2023-10-09T06:03:37;9.37;;;5.50;;
15295;SDS011;7749;49.964;7.890;2023-10-09T06:06:32;7.90;;;5.53;;
15295;SDS011;7749;49.964;7.890;2023-10-09T06:09:18;12.57;;;6.47;;
15295;SDS011;7749;49.964;7.890;2023-10-09T06:11:45;10.50;;;5.97;;
15295;SDS011;7749;49.964;7.890;2023-10-09T06:14:17;7.70;;;5.47;;
15295;SDS011;7749;49.964;7.890;2023-10-09T06:16:57;8.90;;;5.77;;
15295;SDS011;7749;49.964;7.890;2023-10-09T06:19:28;10.93;;;6.07;;
15295;SDS011;7749;49.964;7.890;2023-10-09T06:21:56;9.37;;;6.10;;
15295;SDS011;7749;49.964;7.890;2023-10-09T06:24:30;13.03;;;6.77;;
15295;SDS011;7749;49.964;7.890;2023-10-09T06:27:08;10.40;;;5.83;;
15295;SDS011;7749;49.964;7.890;2023-10-09T06:29:39;17.80;;;6.87;;
15295;SDS011;7749;49.964;7.890;2023-10-09T06:32:16;10.83;;;6.30;;
15295;SDS011;7749;49.964;7.890;2023-10-09T06:34:45;13.90;;;7.40;;
15295;SDS011;7749;49.964;7.890;2023-10-09T06:37:20;13.60;;;8.30;;
15295;SDS011;7749;49.964;7.890;2023-10-09T06:39:51;9.87;;;7.17;;
15295;SDS011;7749;49.964;7.890;2023-10-09T06:42:26;11.20;;;6.90;;
15295;SDS011;7749;49.964;7.890;2023-10-09T06:45:01;11.07;;;6.87;;
15295;SDS011;7749;49.964;7.890;2023-10-09T06:47:32;12.50;;;5.57;;
15295;SDS011;7749;49.964;7.890;2023-10-09T06:50:12;11.33;;;5.77;;
15295;SDS011;7749;49.964;7.890;2023-10-09T06:53:00;9.87;;;5.60;;
15295;SDS011;7749;49.964;7.890;2023-10-09T06:55:36;10.23;;;6.10;;
15295;SDS011;7749;49.964;7.890;2023-10-09T06:58:17;11.47;;;5.50;;
15295;SDS011;7749;49.964;7.890;2023-10-09T07:00:55;17.60;;;6.07;;
15295;SDS011;7749;49.964;7.890;2023-10-09T07:03:41;7.70;;;5.97;;
15295;SDS011;7749;49.964;7.890;2023-10-09T07:06:26;13.27;;;6.47;;
15295;SDS011;7749;49.964;7.890;2023-10-09T07:09:03;14.73;;;6.47;;
15295;SDS011;7749;49.964;7.890;2023-10-09T07:11:44;12.07;;;5.97;;
15295;SDS011;7749;49.964;7.890;2023-10-09T07:14:16;10.83;;;5.97;;
15295;SDS011;7749;49.964;7.890;2023-10-09T07:17:02;12.13;;;5.90;;
15295;SDS011;7749;49.964;7.890;2023-10-09T07:19:43;9.67;;;5.57;;
15295;SDS011;7749;49.964;7.890;2023-10-09T07:22:14;11.70;;;6.70;;
15295;SDS011;7749;49.964;7.890;2023-10-09T07:24:53;9.33;;;5.80;;
15295;SDS011;7749;49.964;7.890;2023-10-09T07:27:26;9.57;;;5.33;;
15295;SDS011;7749;49.964;7.890;2023-10-09T07:30:14;9.03;;;5.37;;
15295;SDS011;7749;49.964;7.890;2023-10-09T07:38:19;10.97;;;5.77;;
15295;SDS011;7749;49.964;7.890;2023-10-09T07:40:50;11.03;;;5.77;;
15295;SDS011;7749;49.964;7.890;2023-10-09T07:43:36;10.43;;;6.13;;
15295;SDS011;7749;49.964;7.890;2023-10-09T07:51:36;10.40;;;6.07;;
15295;SDS011;7749;49.964;7.890;2023-10-09T07:54:04;23.57;;;8.10;;
15295;SDS011;7749;49.964;7.890;2023-10-09T07:59:08;36.23;;;10.23;;
15295;SDS011;7749;49.964;7.890;2023-10-09T08:01:42;13.33;;;6.30;;
15295;SDS011;7749;49.964;7.890;2023-10-09T08:04:22;11.73;;;6.23;;
15295;SDS011;7749;49.964;7.890;2023-10-09T08:07:10;12.97;;;6.80;;
15295;SDS011;7749;49.964;7.890;2023-10-09T08:10:21;11.53;;;6.07;;
15295;SDS011;7749;49.964;7.890;2023-10-09T08:12:49;8.63;;;5.70;;
15295;SDS011;7749;49.964;7.890;2023-10-09T08:15:17;10.07;;;6.47;;
15295;SDS011;7749;49.964;7.890;2023-10-09T08:17:50;9.73;;;6.07;;
15295;SDS011;7749;49.964;7.890;2023-10-09T08:20:23;11.37;;;5.63;;
15295;SDS011;7749;49.964;7.890;2023-10-09T08:22:55;9.93;;;6.17;;
15295;SDS011;7749;49.964;7.890;2023-10-09T08:25:23;11.68;;;5.95;;
15295;SDS011;7749;49.964;7.890;2023-10-09T08:27:54;8.68;;;6.32;;
15295;SDS011;7749;49.964;7.890;2023-10-09T08:30:46;8.60;;;5.28;;
15295;SDS011;7749;49.964;7.890;2023-10-09T08:33:30;13.32;;;5.90;;
15295;SDS011;7749;49.964;7.890;2023-10-09T08:36:10;12.63;;;5.90;;
15295;SDS011;7749;49.964;7.890;2023-10-09T08:38:42;13.55;;;6.05;;
15295;SDS011;7749;49.964;7.890;2023-10-09T08:41:12;10.82;;;5.55;;
15295;SDS011;7749;49.964;7.890;2023-10-09T08:43:48;9.80;;;5.60;;
15295;SDS011;7749;49.964;7.890;2023-10-09T08:46:22;7.07;;;4.90;;
15295;SDS011;7749;49.964;7.890;2023-10-09T08:48:54;11.10;;;4.95;;
15295;SDS011;7749;49.964;7.890;2023-10-09T08:51:26;8.02;;;5.32;;
15295;SDS011;7749;49.964;7.890;2023-10-09T08:53:56;12.50;;;5.13;;
15295;SDS011;7749;49.964;7.890;2023-10-09T08:56:24;8.50;;;5.18;;
15295;SDS011;7749;49.964;7.890;2023-10-09T08:58:58;10.18;;;5.25;;
15295;SDS011;7749;49.964;7.890;2023-10-09T09:01:26;8.75;;;5.53;;
15295;SDS011;7749;49.964;7.890;2023-10-09T09:03:59;10.40;;;4.70;;
15295;SDS011;7749;49.964;7.890;2023-10-09T09:06:35;10.95;;;5.47;;
15295;SDS011;7749;49.964;7.890;2023-10-09T09:09:11;10.52;;;6.05;;
15295;SDS011;7749;49.964;7.890;2023-10-09T09:11:42;8.38;;;5.40;;
15295;SDS011;7749;49.964;7.890;2023-10-09T09:14:16;8.43;;;5.22;;
15295;SDS011;7749;49.964;7.890;2023-10-09T09:16:46;9.30;;;5.68;;
15295;SDS011;7749;49.964;7.890;2023-10-09T09:19:16;10.02;;;5.50;;
15295;SDS011;7749;49.964;7.890;2023-10-09T09:21:48;9.13;;;5.43;;
15295;SDS011;7749;49.964;7.890;2023-10-09T09:24:22;9.18;;;5.57;;
15295;SDS011;7749;49.964;7.890;2023-10-09T09:26:50;10.75;;;5.55;;
15295;SDS011;7749;49.964;7.890;2023-10-09T09:32:05;10.80;;;5.95;;
15295;SDS011;7749;49.964;7.890;2023-10-09T09:34:45;12.18;;;5.85;;
15295;SDS011;7749;49.964;7.890;2023-10-09T09:37:20;15.98;;;5.85;;
15295;SDS011;7749;49.964;7.890;2023-10-09T09:39:51;10.95;;;5.35;;
15295;SDS011;7749;49.964;7.890;2023-10-09T09:42:22;7.20;;;4.97;;
15295;SDS011;7749;49.964;7.890;2023-10-09T09:44:54;10.52;;;5.20;;
15295;SDS011;7749;49.964;7.890;2023-10-09T09:47:22;11.30;;;5.90;;
15295;SDS011;7749;49.964;7.890;2023-10-09T09:49:57;8.55;;;5.60;;
15295;SDS011;7749;49.964;7.890;2023-10-09T09:52:28;8.70;;;4.35;;
15295;SDS011;7749;49.964;7.890;2023-10-09T09:55:09;14.13;;;5.57;;
15295;SDS011;7749;49.964;7.890;2023-10-09T09:57:44;9.45;;;5.10;;
15295;SDS011;7749;49.964;7.890;2023-10-09T10:00:22;7.13;;;4.63;;
15295;SDS011;7749;49.964;7.890;2023-10-09T10:03:14;10.48;;;4.50;;
15295;SDS011;7749;49.964;7.890;2023-10-09T10:05:45;9.25;;;5.40;;
15295;SDS011;7749;49.964;7.890;2023-10-09T10:08:19;27.38;;;7.70;;
15295;SDS011;7749;49.964;7.890;2023-10-09T10:10:48;31.77;;;8.65;;
15295;SDS011;7749;49.964;7.890;2023-10-09T10:16:09;8.77;;;5.28;;
15295;SDS011;7749;49.964;7.890;2023-10-09T10:21:27;10.90;;;5.78;;
15295;SDS011;7749;49.964;7.890;2023-10-09T10:23:59;11.55;;;5.68;;
15295;SDS011;7749;49.964;7.890;2023-10-09T10:26:34;12.07;;;5.00;;
15295;SDS011;7749;49.964;7.890;2023-10-09T10:29:17;9.25;;;4.88;;
15295;SDS011;7749;49.964;7.890;2023-10-09T10:32:02;10.27;;;5.18;;
15295;SDS011;7749;49.964;7.890;2023-10-09T10:40:24;8.80;;;4.85;;
15295;SDS011;7749;49.964;7.890;2023-10-09T10:43:17;9.98;;;5.32;;
15295;SDS011;7749;49.964;7.890;2023-10-09T10:46:04;8.85;;;5.07;;
15295;SDS011;7749;49.964;7.890;2023-10-09T10:48:43;8.27;;;4.80;;
15295;SDS011;7749;49.964;7.890;2023-10-09T10:51:16;8.15;;;4.90;;
15295;SDS011;7749;49.964;7.890;2023-10-09T10:53:52;6.43;;;4.70;;
15295;SDS011;7749;49.964;7.890;2023-10-09T10:56:40;8.73;;;5.18;;
15295;SDS011;7749;49.964;7.890;2023-10-09T10:59:12;10.13;;;4.68;;
15295;SDS011;7749;49.964;7.890;2023-10-09T11:01:40;7.70;;;4.60;;
15295;SDS011;7749;49.964;7.890;2023-10-09T11:04:30;7.57;;;4.07;;
15295;SDS011;7749;49.964;7.890;2023-10-09T11:06:58;7.35;;;4.30;;
15295;SDS011;7749;49.964;7.890;2023-10-09T11:09:49;6.25;;;4.63;;
15295;SDS011;7749;49.964;7.890;2023-10-09T11:15:09;5.57;;;3.97;;
15295;SDS011;7749;49.964;7.890;2023-10-09T11:18:02;4.70;;;4.07;;
15295;SDS011;7749;49.964;7.890;2023-10-09T11:20:34;6.53;;;4.65;;
15295;SDS011;7749;49.964;7.890;2023-10-09T11:23:05;6.55;;;4.32;;
15295;SDS011;7749;49.964;7.890;2023-10-09T11:25:39;5.85;;;3.90;;
15295;SDS011;7749;49.964;7.890;2023-10-09T11:28:20;5.60;;;3.88;;
15295;SDS011;7749;49.964;7.890;2023-10-09T11:31:06;7.35;;;4.15;;
15295;SDS011;7749;49.964;7.890;2023-10-09T11:36:16;6.35;;;3.88;;
15295;SDS011;7749;49.964;7.890;2023-10-09T11:38:48;8.90;;;4.45;;
15295;SDS011;7749;49.964;7.890;2023-10-09T11:41:18;7.72;;;4.72;;
15295;SDS011;7749;49.964;7.890;2023-10-09T11:43:50;6.40;;;5.00;;
15295;SDS011;7749;49.964;7.890;2023-10-09T11:46:20;6.53;;;4.70;;
15295;SDS011;7749;49.964;7.890;2023-10-09T11:49:06;6.78;;;4.93;;
15295;SDS011;7749;49.964;7.890;2023-10-09T11:51:52;7.97;;;4.90;;
15295;SDS011;7749;49.964;7.890;2023-10-09T11:55:00;9.10;;;4.88;;
15295;SDS011;7749;49.964;7.890;2023-10-09T11:57:34;6.95;;;4.30;;
15295;SDS011;7749;49.964;7.890;2023-10-09T12:00:04;6.72;;;4.88;;
15295;SDS011;7749;49.964;7.890;2023-10-09T12:02:52;6.18;;;4.55;;
15295;SDS011;7749;49.964;7.890;2023-10-09T12:05:19;7.50;;;4.75;;
15295;SDS011;7749;49.964;7.890;2023-10-09T12:07:47;7.45;;;4.50;;
15295;SDS011;7749;49.964;7.890;2023-10-09T12:10:21;7.82;;;4.65;;
15295;SDS011;7749;49.964;7.890;2023-10-09T12:12:53;6.43;;;4.18;;
15295;SDS011;7749;49.964;7.890;2023-10-09T12:15:24;9.23;;;4.82;;
15295;SDS011;7749;49.964;7.890;2023-10-09T12:17:59;5.75;;;4.00;;
15295;SDS011;7749;49.964;7.890;2023-10-09T12:20:28;7.63;;;4.78;;
15295;SDS011;7749;49.964;7.890;2023-10-09T12:22:59;8.00;;;5.03;;
15295;SDS011;7749;49.964;7.890;2023-10-09T12:25:28;5.30;;;4.28;;
15295;SDS011;7749;49.964;7.890;2023-10-09T12:27:59;5.68;;;4.30;;
15295;SDS011;7749;49.964;7.890;2023-10-09T12:30:30;7.50;;;4.75;;
15295;SDS011;7749;49.964;7.890;2023-10-09T12:33:05;8.70;;;4.75;;
15295;SDS011;7749;49.964;7.890;2023-10-09T12:35:37;9.68;;;5.28;;
15295;SDS011;7749;49.964;7.890;2023-10-09T12:38:06;6.80;;;5.13;;
15295;SDS011;7749;49.964;7.890;2023-10-09T12:40:37;7.43;;;4.70;;
15295;SDS011;7749;49.964;7.890;2023-10-09T12:43:06;9.40;;;4.88;;
15295;SDS011;7749;49.964;7.890;2023-10-09T12:45:42;8.40;;;5.10;;
15295;SDS011;7749;49.964;7.890;2023-10-09T12:48:10;5.18;;;4.53;;
15295;SDS011;7749;49.964;7.890;2023-10-09T12:50:37;11.35;;;4.85;;
15295;SDS011;7749;49.964;7.890;2023-10-09T12:53:11;7.85;;;4.95;;
15295;SDS011;7749;49.964;7.890;2023-10-09T12:55:44;6.93;;;4.63;;
15295;SDS011;7749;49.964;7.890;2023-10-09T12:58:12;7.85;;;5.32;;
15295;SDS011;7749;49.964;7.890;2023-10-09T13:00:43;7.93;;;4.63;;
15295;SDS011;7749;49.964;7.890;2023-10-09T13:03:11;7.32;;;4.82;;
15295;SDS011;7749;49.964;7.890;2023-10-09T13:05:46;9.15;;;5.05;;
15295;SDS011;7749;49.964;7.890;2023-10-09T13:08:26;9.32;;;5.10;;
15295;SDS011;7749;49.964;7.890;2023-10-09T13:11:09;10.60;;;4.75;;
15295;SDS011;7749;49.964;7.890;2023-10-09T13:13:39;7.57;;;5.20;;
15295;SDS011;7749;49.964;7.890;2023-10-09T13:16:12;8.25;;;4.95;;
15295;SDS011;7749;49.964;7.890;2023-10-09T13:18:50;6.93;;;4.97;;
15295;SDS011;7749;49.964;7.890;2023-10-09T13:21:20;12.02;;;5.10;;
15295;SDS011;7749;49.964;7.890;2023-10-09T13:23:53;10.70;;;4.68;;
15295;SDS011;7749;49.964;7.890;2023-10-09T13:26:21;7.32;;;5.18;;
15295;SDS011;7749;49.964;7.890;2023-10-09T13:29:00;6.75;;;4.65;;
15295;SDS011;7749;49.964;7.890;2023-10-09T13:31:30;7.93;;;5.20;;
15295;SDS011;7749;49.964;7.890;2023-10-09T13:34:01;5.90;;;4.30;;
15295;SDS011;7749;49.964;7.890;2023-10-09T13:36:32;8.73;;;4.88;;
15295;SDS011;7749;49.964;7.890;2023-10-09T13:39:08;6.20;;;4.95;;
15295;SDS011;7749;49.964;7.890;2023-10-09T13:41:55;11.35;;;5.32;;
15295;SDS011;7749;49.964;7.890;2023-10-09T13:44:28;9.85;;;4.80;;
15295;SDS011;7749;49.964;7.890;2023-10-09T13:47:00;7.97;;;4.90;;
15295;SDS011;7749;49.964;7.890;2023-10-09T13:49:32;8.95;;;5.10;;
15295;SDS011;7749;49.964;7.890;2023-10-09T13:52:01;8.30;;;4.90;;
15295;SDS011;7749;49.964;7.890;2023-10-09T13:54:30;10.00;;;4.93;;
15295;SDS011;7749;49.964;7.890;2023-10-09T13:57:02;6.35;;;4.90;;
15295;SDS011;7749;49.964;7.890;2023-10-09T13:59:32;9.38;;;5.13;;
15295;SDS011;7749;49.964;7.890;2023-10-09T14:02:02;7.63;;;5.32;;
15295;SDS011;7749;49.964;7.890;2023-10-09T14:04:37;9.05;;;5.38;;
15295;SDS011;7749;49.964;7.890;2023-10-09T14:07:05;7.43;;;5.18;;
15295;SDS011;7749;49.964;7.890;2023-10-09T14:09:33;5.65;;;4.65;;
15295;SDS011;7749;49.964;7.890;2023-10-09T14:12:19;8.00;;;5.10;;
15295;SDS011;7749;49.964;7.890;2023-10-09T14:14:48;9.23;;;4.97;;
15295;SDS011;7749;49.964;7.890;2023-10-09T14:17:18;7.13;;;4.72;;
15295;SDS011;7749;49.964;7.890;2023-10-09T14:19:53;7.47;;;4.90;;
15295;SDS011;7749;49.964;7.890;2023-10-09T14:22:23;8.52;;;5.30;;
15295;SDS011;7749;49.964;7.890;2023-10-09T14:24:52;5.93;;;5.32;;
15295;SDS011;7749;49.964;7.890;2023-10-09T14:27:24;7.53;;;4.80;;
15295;SDS011;7749;49.964;7.890;2023-10-09T14:29:54;7.53;;;4.82;;
15295;SDS011;7749;49.964;7.890;2023-10-09T14:32:28;8.82;;;5.32;;
15295;SDS011;7749;49.964;7.890;2023-10-09T14:34:56;7.32;;;5.10;;
15295;SDS011;7749;49.964;7.890;2023-10-09T14:37:40;7.47;;;4.90;;
15295;SDS011;7749;49.964;7.890;2023-10-09T14:40:08;8.23;;;5.13;;
15295;SDS011;7749;49.964;7.890;2023-10-09T14:42:39;8.75;;;4.93;;
15295;SDS011;7749;49.964;7.890;2023-10-09T14:45:11;7.95;;;5.05;;
15295;SDS011;7749;49.964;7.890;2023-10-09T14:47:48;8.45;;;4.70;;
15295;SDS011;7749;49.964;7.890;2023-10-09T14:50:16;11.75;;;5.07;;
15295;SDS011;7749;49.964;7.890;2023-10-09T14:52:49;6.38;;;4.43;;
15295;SDS011;7749;49.964;7.890;2023-10-09T14:55:18;8.20;;;4.38;;
15295;SDS011;7749;49.964;7.890;2023-10-09T14:57:48;5.80;;;4.35;;
15295;SDS011;7749;49.964;7.890;2023-10-09T15:00:19;10.07;;;4.70;;
15295;SDS011;7749;49.964;7.890;2023-10-09T15:02:51;7.70;;;4.07;;
15295;SDS011;7749;49.964;7.890;2023-10-09T15:05:19;6.93;;;4.38;;
15295;SDS011;7749;49.964;7.890;2023-10-09T15:07:50;7.50;;;4.03;;
15295;SDS011;7749;49.964;7.890;2023-10-09T15:10:19;8.40;;;3.72;;
15295;SDS011;7749;49.964;7.890;2023-10-09T15:12:47;8.68;;;4.43;;
15295;SDS011;7749;49.964;7.890;2023-10-09T15:15:16;8.82;;;5.00;;
15295;SDS011;7749;49.964;7.890;2023-10-09T15:17:45;9.73;;;4.47;;
15295;SDS011;7749;49.964;7.890;2023-10-09T15:20:15;11.55;;;4.30;;
15295;SDS011;7749;49.964;7.890;2023-10-09T15:22:44;7.15;;;4.30;;
15295;SDS011;7749;49.964;7.890;2023-10-09T15:25:12;9.15;;;4.10;;
15295;SDS011;7749;49.964;7.890;2023-10-09T15:27:42;7.25;;;3.70;;
15295;SDS011;7749;49.964;7.890;2023-10-09T15:30:10;6.75;;;3.90;;
15295;SDS011;7749;49.964;7.890;2023-10-09T15:32:44;6.82;;;4.32;;
15295;SDS011;7749;49.964;7.890;2023-10-09T15:35:13;6.28;;;4.57;;
15295;SDS011;7749;49.964;7.890;2023-10-09T15:37:41;4.97;;;3.92;;
15295;SDS011;7749;49.964;7.890;2023-10-09T15:40:10;7.45;;;4.25;;
15295;SDS011;7749;49.964;7.890;2023-10-09T15:42:42;7.13;;;4.18;;
15295;SDS011;7749;49.964;7.890;2023-10-09T15:45:10;5.78;;;4.10;;
15295;SDS011;7749;49.964;7.890;2023-10-09T15:47:39;5.90;;;4.05;;
15295;SDS011;7749;49.964;7.890;2023-10-09T15:50:07;5.97;;;3.63;;
15295;SDS011;7749;49.964;7.890;2023-10-09T15:52:36;6.72;;;4.13;;
15295;SDS011;7749;49.964;7.890;2023-10-09T15:55:05;6.90;;;3.90;;
15295;SDS011;7749;49.964;7.890;2023-10-09T15:57:40;6.20;;;4.15;;
15295;SDS011;7749;49.964;7.890;2023-10-09T16:00:08;5.65;;;3.60;;
15295;SDS011;7749;49.964;7.890;2023-10-09T16:02:46;7.78;;;4.05;;
15295;SDS011;7749;49.964;7.890;2023-10-09T16:05:15;7.93;;;3.78;;
15295;SDS011;7749;49.964;7.890;2023-10-09T16:07:44;6.82;;;4.45;;
15295;SDS011;7749;49.964;7.890;2023-10-09T16:10:11;6.72;;;4.55;;
15295;SDS011;7749;49.964;7.890;2023-10-09T16:12:39;6.38;;;4.28;;
15295;SDS011;7749;49.964;7.890;2023-10-09T16:15:10;6.25;;;4.05;;